Time;durP1;ratioP1;P1;durP2;ratioP2;P2;SDS_P1;SDS_P2;PMS_P1;PMS_P2;Temp;Humidity;BMP_temperature;BMP_pressure;BME280_temperature;BME280_humidity;BME280_pressure;Samples;Min_cycle;Max_cycle;Signal;HPM_P1;HPM_P2
2021/03/30 00:00:12;;;;;;;8.90;2.80;;;;;;;7.09;45.82;102829.69;5038443;28;20385;-71
2021/03/30 00:02:38;;;;;;;8.95;2.00;;;;;;;7.15;45.86;102823.63;5018723;28;20052;-72
2021/03/30 00:05:04;;;;;;;6.63;2.25;;;;;;;7.11;45.69;102821.03;5034360;28;20055;-72
2021/03/30 00:07:30;;;;;;;8.77;3.28;;;;;;;7.12;45.37;102822.75;5016612;28;20052;-72
2021/03/30 00:09:56;;;;;;;4.78;2.60;;;;;;;7.19;44.83;102817.59;5037819;28;20057;-72
2021/03/30 00:12:21;;;;;;;8.30;2.00;;;;;;;6.94;45.01;102820.03;5039886;28;20029;-72
2021/03/30 00:14:47;;;;;;;5.30;2.53;;;;;;;7.02;44.52;102814.88;5034920;28;20429;-72
2021/03/30 00:17:13;;;;;;;11.00;2.88;;;;;;;7.03;44.89;102816.63;5019037;28;20033;-72
2021/03/30 00:19:38;;;;;;;10.73;3.40;;;;;;;6.99;44.15;102817.47;5034311;28;20040;-73
2021/03/30 00:22:04;;;;;;;9.32;2.67;;;;;;;7.18;44.13;102815.88;5037195;28;20025;-73
2021/03/30 00:24:30;;;;;;;6.05;2.40;;;;;;;7.26;43.79;102825.41;5026508;28;20091;-72
2021/03/30 00:26:55;;;;;;;7.95;2.50;;;;;;;7.18;43.21;102824.53;5022453;28;20025;-72
2021/03/30 00:29:21;;;;;;;7.65;2.58;;;;;;;7.16;43.38;102822.78;5033294;28;20102;-73
2021/03/30 00:31:46;;;;;;;10.52;2.10;;;;;;;7.35;42.92;102829.78;5035315;28;20029;-71
2021/03/30 00:34:12;;;;;;;9.38;2.25;;;;;;;7.21;43.30;102828.88;5041342;28;20112;-76
2021/03/30 00:36:37;;;;;;;6.88;2.25;;;;;;;7.04;43.30;102828.75;5026472;28;20029;-77
2021/03/30 00:39:03;;;;;;;10.95;2.55;;;;;;;7.24;42.84;102832.34;5041803;28;20030;-78
2021/03/30 00:41:29;;;;;;;17.48;2.88;;;;;;;7.20;43.18;102835.81;5026187;28;20491;-77
2021/03/30 00:43:54;;;;;;;10.20;2.15;;;;;;;7.29;42.93;102829.78;5036688;28;20040;-77
2021/03/30 00:46:20;;;;;;;5.85;1.80;;;;;;;7.18;43.45;102828.88;5022720;28;20043;-77
2021/03/30 00:48:48;;;;;;;4.35;2.45;;;;;;;7.18;43.44;102836.66;5010688;28;20082;-78
2021/03/30 00:51:17;;;;;;;6.93;2.58;;;;;;;7.05;43.38;102838.31;5038798;28;20036;-78
2021/03/30 00:54:06;;;;;;;7.65;1.95;;;;;;;7.03;43.29;102845.22;5040687;28;20037;-78
2021/03/30 00:56:37;;;;;;;4.47;1.63;;;;;;;7.02;43.35;102846.06;5029381;28;20434;-78
2021/03/30 00:59:03;;;;;;;4.47;1.83;;;;;;;7.10;42.89;102844.41;5027733;28;20048;-78
2021/03/30 01:01:28;;;;;;;6.57;2.22;;;;;;;7.08;43.01;102840.91;5026617;28;20040;-78
2021/03/30 01:03:54;;;;;;;7.25;2.10;;;;;;;7.04;43.33;102852.16;5028887;28;20424;-78
2021/03/30 01:06:20;;;;;;;8.80;2.13;;;;;;;7.02;43.32;102851.28;5043455;28;20037;-78
2021/03/30 01:09:10;;;;;;;7.30;1.23;;;;;;;7.05;42.82;102852.19;5044878;28;20040;-78
2021/03/30 01:12:07;;;;;;;5.57;2.25;;;;;;;7.08;43.02;102848.72;5044545;28;20030;-78
2021/03/30 01:14:51;;;;;;;8.30;2.08;;;;;;;7.00;42.69;102853.00;5029757;28;20025;-77
2021/03/30 01:17:33;;;;;;;6.07;1.92;;;;;;;6.97;42.67;102847.78;5042372;28;20036;-77
2021/03/30 01:20:20;;;;;;;12.57;1.98;;;;;;;6.93;42.56;102846.03;5035099;28;20124;-76
2021/03/30 01:22:58;;;;;;;8.57;1.95;;;;;;;6.89;42.75;102838.22;5016706;28;20110;-71
2021/03/30 01:25:26;;;;;;;6.97;1.52;;;;;;;6.96;42.53;102851.25;5025669;28;20083;-71
2021/03/30 01:28:01;;;;;;;9.80;2.13;;;;;;;6.85;42.54;102845.97;5018028;28;20029;-72
2021/03/30 01:30:27;;;;;;;4.57;2.30;;;;;;;6.78;42.93;102850.25;5035631;28;20422;-72
2021/03/30 01:32:57;;;;;;;11.48;1.90;;;;;;;6.80;42.56;102858.94;5034266;28;20153;-72
2021/03/30 01:35:25;;;;;;;8.23;1.98;;;;;;;6.86;42.62;102850.31;5037370;28;20036;-72
2021/03/30 01:37:51;;;;;;;6.57;2.00;;;;;;;6.83;42.59;102850.28;5039478;28;20029;-72
2021/03/30 01:40:33;;;;;;;10.30;2.30;;;;;;;6.79;43.22;102845.94;5020837;28;20036;-72
2021/03/30 01:43:01;;;;;;;4.72;1.92;;;;;;;6.76;42.67;102851.97;5035556;28;20040;-70
2021/03/30 01:45:27;;;;;;;7.97;2.20;;;;;;;6.71;42.85;102845.88;5009976;28;20037;-71
2021/03/30 01:47:55;;;;;;;6.60;2.10;;;;;;;6.69;43.17;102850.19;5039115;28;20047;-70
2021/03/30 01:50:21;;;;;;;8.68;1.70;;;;;;;6.63;43.31;102855.34;5039747;28;20033;-70
2021/03/30 01:52:48;;;;;;;5.18;2.05;;;;;;;6.53;43.61;102857.00;5024066;28;20923;-71
2021/03/30 01:55:16;;;;;;;3.67;1.83;;;;;;;6.35;44.31;102857.72;5034525;28;20033;-70
2021/03/30 01:57:46;;;;;;;8.27;2.20;;;;;;;6.25;44.24;102856.69;5033542;28;20040;-71
2021/03/30 02:00:13;;;;;;;12.85;2.20;;;;;;;6.22;44.34;102854.06;5023989;28;20044;-75
2021/03/30 02:02:45;;;;;;;6.45;1.77;;;;;;;6.22;44.05;102845.44;5034577;28;20071;-75
2021/03/30 02:05:13;;;;;;;7.45;2.22;;;;;;;6.28;44.20;102851.59;5034100;28;20041;-75
2021/03/30 02:07:43;;;;;;;5.53;2.13;;;;;;;6.33;43.86;102843.84;5010473;28;20322;-75
2021/03/30 02:10:15;;;;;;;5.65;1.90;;;;;;;6.33;43.87;102848.13;5024113;28;20029;-74
2021/03/30 02:12:45;;;;;;;2.88;1.80;;;;;;;6.34;43.95;102850.75;5040131;28;20044;-74
2021/03/30 02:15:16;;;;;;;5.93;1.92;;;;;;;6.26;44.19;102841.97;5041920;28;20421;-76
2021/03/30 02:17:54;;;;;;;5.03;1.65;;;;;;;6.26;44.11;102844.56;5008290;28;20495;-75
2021/03/30 02:20:33;;;;;;;5.00;2.00;;;;;;;6.31;44.07;102853.34;5033738;28;20317;-73
2021/03/30 02:23:08;;;;;;;6.43;1.90;;;;;;;6.27;44.08;102848.94;5025131;28;20387;-75
2021/03/30 02:25:36;;;;;;;9.45;2.58;;;;;;;6.26;44.45;102850.66;5015334;28;20036;-74
2021/03/30 02:28:07;;;;;;;8.02;1.83;;;;;;;6.11;44.63;102853.09;5038228;28;20134;-73
2021/03/30 02:30:35;;;;;;;10.43;2.42;;;;;;;6.06;44.88;102858.25;5037370;28;20441;-77
2021/03/30 02:33:03;;;;;;;5.97;2.63;;;;;;;6.02;45.04;102853.00;5026722;28;20029;-74
2021/03/30 02:35:29;;;;;;;5.00;2.03;;;;;;;5.97;45.23;102844.28;5025694;28;20018;-76
2021/03/30 02:37:56;;;;;;;6.00;2.10;;;;;;;6.06;44.93;102846.97;5025888;28;20048;-76
2021/03/30 02:48:03;;;;;;;5.15;2.50;;;;;;;6.14;44.67;102854.84;5040399;28;20605;-74
2021/03/30 02:50:29;;;;;;;4.80;1.75;;;;;;;6.00;44.70;102850.38;5037359;28;20204;-74
2021/03/30 02:52:57;;;;;;;8.13;3.05;;;;;;;6.19;44.30;102842.78;5039474;28;20052;-76
2021/03/30 02:55:23;;;;;;;8.95;3.17;;;;;;;6.04;44.58;102846.97;5022819;28;20570;-74
2021/03/30 02:57:50;;;;;;;10.68;2.83;;;;;;;6.24;44.09;102847.19;5034541;28;20495;-74
2021/03/30 03:00:17;;;;;;;7.25;3.55;;;;;;;5.80;44.91;102844.09;5038690;28;20442;-74
2021/03/30 03:02:44;;;;;;;7.55;2.92;;;;;;;6.17;44.51;102842.78;5040380;28;20057;-75
2021/03/30 03:05:12;;;;;;;13.18;3.47;;;;;;;6.25;44.22;102842.84;5037009;28;20093;-75
2021/03/30 03:07:38;;;;;;;12.95;3.20;;;;;;;6.08;44.51;102842.66;5037490;28;20494;-75
2021/03/30 03:10:09;;;;;;;13.15;3.97;;;;;;;6.17;44.41;102841.88;5021526;28;20467;-74
2021/03/30 03:12:41;;;;;;;7.43;2.75;;;;;;;6.17;44.51;102836.69;5037900;28;20539;-74
2021/03/30 03:15:13;;;;;;;13.23;3.38;;;;;;;5.94;45.44;102846.84;5021536;28;20567;-75
2021/03/30 03:17:41;;;;;;;6.03;3.00;;;;;;;6.02;45.05;102846.09;5023888;28;20044;-74
2021/03/30 03:20:08;;;;;;;12.98;3.80;;;;;;;5.78;45.77;102848.41;5010332;28;20040;-75
2021/03/30 03:22:34;;;;;;;13.00;3.42;;;;;;;6.06;45.15;102845.25;5032489;28;20040;-74
2021/03/30 03:25:00;;;;;;;7.07;2.67;;;;;;;6.20;45.08;102844.53;5037213;28;20101;-74
2021/03/30 03:27:28;;;;;;;11.18;2.47;;;;;;;6.28;44.36;102846.38;5020722;28;20033;-75
2021/03/30 03:29:54;;;;;;;12.60;2.85;;;;;;;6.24;45.04;102843.72;5017154;28;20041;-75
2021/03/30 03:32:24;;;;;;;12.18;3.03;;;;;;;6.34;44.41;102845.56;5035142;28;20060;-75
2021/03/30 03:34:49;;;;;;;10.88;2.92;;;;;;;6.31;44.69;102848.13;5013979;28;20075;-74
2021/03/30 03:37:15;;;;;;;7.07;3.60;;;;;;;6.33;44.46;102842.94;5022649;28;20041;-75
2021/03/30 03:39:41;;;;;;;8.48;3.70;;;;;;;6.15;45.16;102843.59;5037166;28;20033;-72
2021/03/30 03:42:06;;;;;;;7.22;3.08;;;;;;;6.03;45.54;102844.34;5034156;28;20029;-73
2021/03/30 03:44:32;;;;;;;12.75;3.08;;;;;;;6.08;45.41;102838.38;5014897;28;20086;-76
2021/03/30 03:46:57;;;;;;;10.27;3.40;;;;;;;6.01;45.72;102841.72;5020205;28;20036;-76
2021/03/30 03:49:25;;;;;;;4.85;2.92;;;;;;;5.86;46.12;102836.41;5021515;28;20035;-73
2021/03/30 03:51:57;;;;;;;7.38;3.30;;;;;;;5.85;46.33;102845.03;5018719;28;20113;-73
2021/03/30 03:54:22;;;;;;;;;;;;;;;6.11;45.46;102834.06;5034305;28;20021;-74
2021/03/30 03:56:53;;;;;;;8.02;3.88;;;;;;;5.85;46.20;102840.69;5019248;28;20022;-74
2021/03/30 03:59:23;;;;;;;14.98;3.35;;;;;;;5.85;46.27;102843.28;5035076;28;20059;-75
2021/03/30 04:02:02;;;;;;;15.63;3.15;;;;;;;5.85;46.22;102839.81;5032609;28;20040;-74
2021/03/30 04:04:53;;;;;;;8.48;3.25;;;;;;;6.00;45.89;102849.53;5036905;28;20428;-72
2021/03/30 04:07:22;;;;;;;8.93;3.13;;;;;;;6.01;45.64;102846.06;5033649;28;20175;-72
2021/03/30 04:09:51;;;;;;;5.13;3.33;;;;;;;6.07;45.83;102852.19;5032500;28;20288;-72
2021/03/30 04:12:19;;;;;;;7.95;3.92;;;;;;;6.03;45.92;102850.41;5035078;28;20091;-74
2021/03/30 04:14:45;;;;;;;13.55;4.10;;;;;;;6.02;45.58;102855.59;5023778;28;20048;-75
2021/03/30 04:17:16;;;;;;;5.50;3.03;;;;;;;6.13;45.49;102855.69;5027626;28;20428;-74
2021/03/30 04:19:42;;;;;;;7.07;3.55;;;;;;;5.83;46.41;102857.97;5031610;28;20178;-73
2021/03/30 04:22:07;;;;;;;9.40;2.53;;;;;;;5.88;46.12;102858.91;5033216;28;20116;-73
2021/03/30 04:24:33;;;;;;;7.15;2.78;;;;;;;6.00;45.86;102858.16;5024438;28;20059;-73
2021/03/30 04:26:58;;;;;;;6.40;3.20;;;;;;;6.00;46.14;102857.31;5040800;28;20056;-73
2021/03/30 04:29:24;;;;;;;10.50;2.95;;;;;;;5.95;46.12;102862.44;5020197;28;20029;-75
2021/03/30 04:31:49;;;;;;;11.32;3.75;;;;;;;5.91;46.52;102863.25;5024285;28;20086;-74
2021/03/30 04:34:15;;;;;;;7.18;3.45;;;;;;;5.98;46.09;102856.41;5026068;28;20490;-74
2021/03/30 04:36:40;;;;;;;12.93;3.35;;;;;;;6.08;45.84;102858.25;5025614;28;20029;-75
2021/03/30 04:39:06;;;;;;;11.98;4.32;;;;;;;6.08;45.75;102860.84;5042315;28;20037;-75
2021/03/30 04:41:31;;;;;;;8.25;4.10;;;;;;;6.01;46.13;102861.63;5012950;28;20151;-70
2021/03/30 04:43:57;;;;;;;8.98;2.80;;;;;;;6.01;46.24;102862.50;5038030;28;20039;-71
2021/03/30 04:46:22;;;;;;;8.50;4.15;;;;;;;5.80;46.99;102870.06;5034566;28;20104;-71
2021/03/30 04:48:48;;;;;;;11.48;3.85;;;;;;;5.98;46.32;102872.84;5037192;28;20060;-75
2021/03/30 04:51:13;;;;;;;6.65;4.05;;;;;;;5.83;46.92;102878.72;5043145;28;20563;-75
2021/03/30 04:53:39;;;;;;;7.22;3.55;;;;;;;5.84;46.78;102890.00;5039760;28;20029;-74
2021/03/30 04:56:05;;;;;;;14.30;5.30;;;;;;;5.93;47.01;102889.25;5053703;28;20396;-75
2021/03/30 04:58:31;;;;;;;13.38;4.03;;;;;;;5.47;48.10;102897.28;5036676;28;20031;-75
2021/03/30 05:00:56;;;;;;;13.85;4.30;;;;;;;5.51;47.46;102890.44;5023892;28;20487;-75
2021/03/30 05:03:22;;;;;;;11.25;4.65;;;;;;;5.63;47.73;102891.44;5039194;28;20287;-74
2021/03/30 05:05:47;;;;;;;9.00;3.85;;;;;;;5.08;48.96;102895.88;5039489;28;20261;-74
2021/03/30 05:08:13;;;;;;;19.02;4.88;;;;;;;5.57;48.39;102906.06;5038346;28;20487;-74
2021/03/30 05:10:38;;;;;;;12.23;5.05;;;;;;;5.79;47.29;102897.75;5023883;28;20064;-76
2021/03/30 05:13:04;;;;;;;16.95;4.93;;;;;;;5.71;47.66;102901.94;5023530;28;20036;-77
2021/03/30 05:15:29;;;;;;;14.13;4.03;;;;;;;5.74;47.47;102904.56;5041545;28;20032;-78
2021/03/30 05:17:55;;;;;;;16.75;5.03;;;;;;;5.64;47.96;102903.59;5026887;28;20028;-75
2021/03/30 05:20:21;;;;;;;9.70;5.53;;;;;;;5.54;47.93;102896.53;5024089;28;20062;-77
2021/03/30 05:22:46;;;;;;;8.98;4.22;;;;;;;5.74;47.54;102903.69;5026012;28;20029;-77
2021/03/30 05:25:12;;;;;;;14.13;4.25;;;;;;;5.87;47.22;102900.41;5022407;28;20071;-77
2021/03/30 05:27:38;;;;;;;6.55;3.67;;;;;;;5.85;47.08;102902.13;5024637;28;20033;-77
2021/03/30 05:30:10;;;;;;;15.20;5.80;;;;;;;6.10;46.54;102911.06;5025268;28;20029;-75
2021/03/30 05:32:35;;;;;;;20.33;5.05;;;;;;;5.99;46.98;102910.94;5023633;28;20043;-74
2021/03/30 05:35:01;;;;;;;9.05;5.07;;;;;;;6.06;46.59;102911.88;5020757;28;20038;-73
2021/03/30 05:37:26;;;;;;;16.63;4.03;;;;;;;6.20;46.45;102907.72;5019828;28;20036;-73
2021/03/30 05:39:52;;;;;;;10.50;3.90;;;;;;;6.37;45.92;102918.28;5037438;28;20348;-77
2021/03/30 05:42:19;;;;;;;18.00;5.55;;;;;;;6.18;46.31;102927.59;5019523;28;20055;-74
2021/03/30 05:44:45;;;;;;;11.77;4.70;;;;;;;6.13;46.69;102930.97;5041256;28;20040;-74
2021/03/30 05:47:16;;;;;;;9.43;4.10;;;;;;;6.36;46.01;102929.56;5038307;28;20060;-76
2021/03/30 05:49:44;;;;;;;15.57;4.47;;;;;;;6.45;46.21;102927.06;5038591;28;20052;-75
2021/03/30 05:52:17;;;;;;;8.48;3.85;;;;;;;6.19;46.35;102939.72;5037469;28;20037;-75
2021/03/30 05:54:47;;;;;;;9.88;4.00;;;;;;;6.18;46.76;102939.72;5042743;28;20108;-76
2021/03/30 05:57:14;;;;;;;8.77;4.00;;;;;;;6.04;46.99;102940.44;5042668;28;20028;-74
2021/03/30 05:59:45;;;;;;;10.52;4.30;;;;;;;7.27;44.98;102935.56;5020476;28;20037;-74
2021/03/30 06:02:21;;;;;;;10.98;4.00;;;;;;;8.78;40.47;102931.81;5037659;28;20128;-77
2021/03/30 06:04:47;;;;;;;10.25;4.60;;;;;;;9.78;38.39;102935.09;5022000;28;20028;-74
2021/03/30 06:07:13;;;;;;;8.32;3.67;;;;;;;11.39;34.90;102938.38;5022360;28;20029;-75
2021/03/30 06:09:46;;;;;;;9.43;3.58;;;;;;;11.81;33.57;102941.44;5029291;28;20486;-76
2021/03/30 06:12:14;;;;;;;8.52;3.60;;;;;;;13.65;30.50;102948.16;5045073;28;20124;-73
2021/03/30 06:14:42;;;;;;;14.10;3.88;;;;;;;14.34;30.73;102949.31;5038800;28;20055;-76
2021/03/30 06:17:13;;;;;;;10.55;3.30;;;;;;;14.49;29.85;102952.50;5022847;28;20029;-75
2021/03/30 06:19:52;;;;;;;8.70;3.35;;;;;;;15.58;28.21;102950.56;5039306;28;20030;-75
2021/03/30 06:22:20;;;;;;;9.85;3.25;;;;;;;16.36;26.80;102955.28;5025307;28;20076;-76
2021/03/30 06:24:46;;;;;;;10.95;3.15;;;;;;;17.12;25.54;102956.31;5020630;28;20029;-74
2021/03/30 06:27:32;;;;;;;8.48;2.92;;;;;;;16.29;26.54;102952.91;5037275;28;20060;-73
2021/03/30 06:29:59;;;;;;;11.23;3.60;;;;;;;16.21;26.22;102955.78;5022116;28;20069;-75
2021/03/30 06:32:27;;;;;;;6.45;3.30;;;;;;;17.70;24.43;102957.81;5020060;28;20055;-75
2021/03/30 06:34:58;;;;;;;8.10;3.80;;;;;;;17.67;25.10;102966.75;5035840;28;20029;-74
2021/03/30 06:37:26;;;;;;;8.18;3.72;;;;;;;18.38;23.64;102972.81;5039386;28;20181;-74
2021/03/30 06:39:53;;;;;;;6.25;3.53;;;;;;;18.71;23.38;102964.44;5005506;28;20151;-74
2021/03/30 06:42:32;;;;;;;6.68;2.85;;;;;;;18.32;23.89;102965.16;5019048;28;20039;-74
2021/03/30 06:44:57;;;;;;;9.85;3.10;;;;;;;18.50;23.61;102960.00;5032140;28;20427;-74
2021/03/30 06:47:24;;;;;;;9.82;3.80;;;;;;;19.81;22.66;102969.34;5024672;28;20300;-74
2021/03/30 06:50:00;;;;;;;5.28;2.80;;;;;;;18.14;24.06;102972.00;5037738;28;20147;-75
2021/03/30 06:52:33;;;;;;;11.43;2.97;;;;;;;18.71;23.69;102967.06;5033936;28;20277;-75
2021/03/30 06:55:09;;;;;;;10.18;3.08;;;;;;;20.67;21.61;102972.38;5036037;28;20030;-75
2021/03/30 06:57:37;;;;;;;8.75;2.92;;;;;;;20.36;22.43;102976.53;5025245;28;20068;-75
2021/03/30 07:00:26;;;;;;;7.15;3.25;;;;;;;22.30;20.08;102972.56;5033564;28;20040;-74
2021/03/30 07:03:00;;;;;;;10.73;3.95;;;;;;;22.49;19.93;102966.16;5020228;28;20531;-74
2021/03/30 07:05:38;;;;;;;6.22;3.33;;;;;;;20.36;22.63;102971.22;5035488;28;20692;-76
2021/03/30 07:08:05;;;;;;;9.18;3.15;;;;;;;19.48;24.00;102966.44;5036764;28;20053;-76
2021/03/30 07:10:33;;;;;;;13.27;4.15;;;;;;;21.77;21.55;102971.94;5016209;28;20043;-75
2021/03/30 07:12:58;;;;;;;9.07;3.08;;;;;;;23.46;19.45;102966.59;5035725;28;20032;-75
2021/03/30 07:15:26;;;;;;;7.18;2.55;;;;;;;22.00;22.43;102961.78;5016311;28;20391;-74
2021/03/30 07:18:00;;;;;;;5.57;2.80;;;;;;;23.71;20.29;102957.88;5034338;28;20032;-73
2021/03/30 07:20:26;;;;;;;5.70;2.42;;;;;;;24.50;19.15;102961.69;5033865;28;20036;-75
2021/03/30 07:22:54;;;;;;;13.32;2.92;;;;;;;25.12;18.48;102962.88;5022873;28;20037;-74
2021/03/30 07:25:23;;;;;;;8.00;3.03;;;;;;;22.42;21.04;102965.66;5024101;28;20361;-74
2021/03/30 07:28:00;;;;;;;7.25;3.40;;;;;;;22.38;21.31;102966.78;5019091;28;20668;-74
2021/03/30 07:30:27;;;;;;;13.40;3.65;;;;;;;21.56;22.84;102960.66;4998347;28;20488;-74
2021/03/30 07:33:11;;;;;;;11.93;2.63;;;;;;;23.36;21.00;102968.97;5035561;28;20116;-74
2021/03/30 07:35:38;;;;;;;6.05;2.60;;;;;;;24.08;21.29;102968.03;5034042;28;20036;-74
2021/03/30 07:38:25;;;;;;;12.75;3.08;;;;;;;25.05;18.99;102974.00;5031836;28;20033;-74
2021/03/30 07:40:51;;;;;;;11.23;3.35;;;;;;;23.96;20.66;102977.72;5032366;28;20084;-75
2021/03/30 07:43:28;;;;;;;13.00;3.88;;;;;;;25.08;20.11;102972.06;5032247;28;20128;-76
2021/03/30 07:45:58;;;;;;;8.73;2.75;;;;;;;24.18;20.62;102972.69;5033790;28;20052;-76
2021/03/30 07:48:25;;;;;;;9.05;3.00;;;;;;;22.20;23.36;102975.84;5019988;28;20041;-76
2021/03/30 07:51:02;;;;;;;5.85;2.42;;;;;;;24.47;21.68;102977.09;5013732;28;20123;-74
2021/03/30 07:53:47;;;;;;;8.18;2.30;;;;;;;24.59;20.86;102963.78;5016766;28;20601;-75
2021/03/30 07:56:25;;;;;;;8.63;2.80;;;;;;;24.82;20.66;102974.72;5034185;28;20025;-75
2021/03/30 07:58:52;;;;;;;6.55;2.97;;;;;;;25.27;21.23;102969.84;5029101;28;20203;-74
2021/03/30 08:01:20;;;;;;;9.05;2.90;;;;;;;25.79;20.19;102976.81;5011945;28;20029;-74
2021/03/30 08:03:48;;;;;;;10.55;3.03;;;;;;;25.64;19.99;102977.94;5033199;28;20045;-74
2021/03/30 08:06:21;;;;;;;12.07;2.95;;;;;;;25.79;20.13;102984.88;5033830;28;20045;-75
2021/03/30 08:09:01;;;;;;;11.70;3.85;;;;;;;25.67;20.82;102981.25;5032624;28;20037;-75
2021/03/30 08:11:54;;;;;;;8.85;3.15;;;;;;;25.33;20.67;102982.78;5021319;28;20089;-75
2021/03/30 08:14:19;;;;;;;5.53;3.60;;;;;;;23.78;22.85;102979.72;5033204;28;20033;-74
2021/03/30 08:16:48;;;;;;;7.05;2.70;;;;;;;24.88;21.45;102976.09;5018210;28;20033;-75
2021/03/30 08:19:15;;;;;;;5.60;2.22;;;;;;;26.69;20.28;102985.38;5035310;28;20033;-76
2021/03/30 08:22:02;;;;;;;12.38;3.97;;;;;;;25.11;21.09;102982.56;5034144;28;20033;-74
2021/03/30 08:24:46;;;;;;;10.10;3.22;;;;;;;24.14;22.72;102984.53;5052040;28;20071;-74
2021/03/30 08:27:30;;;;;;;14.75;3.00;;;;;;;22.67;23.89;102988.22;5036350;28;20063;-75
2021/03/30 08:29:56;;;;;;;12.63;4.55;;;;;;;24.01;22.98;102991.59;5017571;28;20503;-75
2021/03/30 08:32:22;;;;;;;11.15;3.35;;;;;;;24.60;21.98;102986.84;5037468;28;20475;-76
2021/03/30 08:34:48;;;;;;;10.88;3.25;;;;;;;24.17;22.03;102976.31;5030762;28;20029;-74
2021/03/30 08:37:15;;;;;;;10.02;3.20;;;;;;;22.07;25.72;102980.94;5036598;28;20036;-75
2021/03/30 08:39:42;;;;;;;11.07;4.32;;;;;;;21.93;25.40;102987.91;5038198;28;20033;-74
2021/03/30 08:42:17;;;;;;;10.30;3.05;;;;;;;22.79;24.54;102979.53;5035807;28;20029;-74
2021/03/30 08:44:44;;;;;;;9.18;3.70;;;;;;;22.70;23.87;102985.41;5032100;28;20041;-75
2021/03/30 08:47:24;;;;;;;15.57;4.88;;;;;;;21.95;25.19;102983.34;5013819;28;20147;-75
2021/03/30 08:49:50;;;;;;;7.72;3.35;;;;;;;20.70;26.77;102986.34;5006009;28;20071;-75
2021/03/30 08:52:17;;;;;;;8.98;3.25;;;;;;;22.88;24.88;102991.47;5020565;28;20527;-75
2021/03/30 08:54:54;;;;;;;7.60;3.78;;;;;;;23.25;23.44;102990.06;5020302;28;20032;-75
2021/03/30 08:57:29;;;;;;;12.48;3.85;;;;;;;21.18;26.85;102989.28;5025307;28;20125;-75
2021/03/30 08:59:56;;;;;;;9.05;3.70;;;;;;;20.85;26.43;102986.56;5041117;28;20033;-74
2021/03/30 09:02:26;;;;;;;11.52;3.60;;;;;;;19.29;28.77;102983.16;5020671;28;20033;-75
2021/03/30 09:04:52;;;;;;;10.85;3.97;;;;;;;19.22;28.89;102986.16;5039770;28;20028;-75
2021/03/30 09:07:18;;;;;;;10.02;3.95;;;;;;;17.82;30.60;102991.72;5025067;28;20037;-75
2021/03/30 09:09:45;;;;;;;12.50;3.47;;;;;;;19.01;29.43;102990.56;5041163;28;20044;-75
2021/03/30 09:12:17;;;;;;;9.55;4.00;;;;;;;19.30;29.44;102991.97;5024086;28;20036;-75
2021/03/30 09:14:46;;;;;;;;;;;;;;;19.76;28.62;103002.34;5025178;28;20036;-75
2021/03/30 09:17:15;;;;;;;6.90;3.75;;;;;;;19.16;29.34;102997.88;5019351;28;20371;-75
2021/03/30 09:19:47;;;;;;;15.25;4.28;;;;;;;20.06;28.70;102985.00;5017499;28;20037;-75
2021/03/30 09:22:24;;;;;;;6.60;3.40;;;;;;;20.04;28.08;102986.88;5039305;28;20519;-74
2021/03/30 09:25:21;;;;;;;12.07;4.18;;;;;;;19.87;28.35;102986.81;5033798;28;20462;-75
2021/03/30 09:27:47;;;;;;;9.82;4.15;;;;;;;20.32;27.47;102986.44;5025444;28;20491;-75
2021/03/30 09:30:17;;;;;;;17.33;4.18;;;;;;;20.49;27.30;102988.28;5039532;28;20107;-74
2021/03/30 09:32:45;;;;;;;7.97;3.85;;;;;;;19.23;29.00;102999.34;5027396;28;20033;-74
2021/03/30 09:35:22;;;;;;;15.85;4.22;;;;;;;19.02;28.94;103003.78;5017209;28;20044;-75
2021/03/30 09:37:52;;;;;;;15.80;4.30;;;;;;;20.38;28.39;103000.38;5022848;28;20044;-75
2021/03/30 09:40:31;;;;;;;13.70;4.25;;;;;;;19.51;28.16;103003.44;5010724;28;20511;-75
2021/03/30 09:42:58;;;;;;;9.57;2.97;;;;;;;20.51;27.26;103001.50;5024971;28;20029;-74
2021/03/30 09:45:32;;;;;;;10.23;3.70;;;;;;;20.83;27.03;102997.22;5035079;28;20076;-75
2021/03/30 09:47:59;;;;;;;9.93;3.67;;;;;;;20.02;28.34;103003.81;5040516;28;20048;-74
2021/03/30 09:50:27;;;;;;;11.10;3.83;;;;;;;20.32;27.66;102993.53;5008287;28;20033;-75
2021/03/30 09:52:52;;;;;;;11.45;4.63;;;;;;;19.92;27.77;102998.06;5038827;28;20151;-75
2021/03/30 09:55:30;;;;;;;10.05;3.88;;;;;;;20.76;26.62;102995.81;5021775;28;20120;-75
2021/03/30 09:58:04;;;;;;;11.23;3.35;;;;;;;19.91;27.53;102999.84;5024083;28;20505;-75
2021/03/30 10:00:31;;;;;;;12.43;4.43;;;;;;;21.05;26.76;102997.03;5038713;28;20031;-76
2021/03/30 10:02:58;;;;;;;8.45;3.30;;;;;;;19.09;28.38;102997.28;5039946;28;20116;-75
2021/03/30 10:05:24;;;;;;;12.57;4.15;;;;;;;20.16;27.87;102992.53;5019137;28;20033;-76
2021/03/30 10:07:49;;;;;;;8.68;3.70;;;;;;;19.90;27.70;102995.50;5024414;28;20702;-75
2021/03/30 10:10:15;;;;;;;7.75;3.58;;;;;;;19.61;27.71;103003.91;5064460;23;20059;-68
2021/03/30 10:12:58;;;;;;;7.45;3.33;;;;;;;19.45;27.26;102993.09;5042046;28;20036;-67
2021/03/30 10:15:39;;;;;;;9.60;3.35;;;;;;;21.18;26.03;102989.28;5038408;28;20080;-67
2021/03/30 10:18:06;;;;;;;7.97;3.13;;;;;;;19.29;26.93;102991.09;5040067;28;20518;-67
2021/03/30 10:20:53;;;;;;;6.75;3.00;;;;;;;20.05;27.34;102999.19;5038209;28;20087;-67
2021/03/30 10:23:26;;;;;;;7.68;4.13;;;;;;;20.52;26.32;102996.09;5058688;28;20024;-68
2021/03/30 10:25:52;;;;;;;11.02;3.42;;;;;;;20.37;25.92;102993.31;5023919;28;20029;-67
2021/03/30 10:28:28;;;;;;;7.45;3.00;;;;;;;21.49;25.21;102996.53;5038715;28;20043;-68
2021/03/30 10:31:04;;;;;;;12.70;2.92;;;;;;;20.05;27.00;102995.69;5040631;28;20064;-67
2021/03/30 10:33:43;;;;;;;8.25;3.50;;;;;;;20.68;26.30;102988.22;5036483;28;20025;-67
2021/03/30 10:36:14;;;;;;;7.80;3.60;;;;;;;20.66;26.53;102986.56;5037935;28;20120;-68
2021/03/30 10:38:41;;;;;;;8.23;3.38;;;;;;;20.45;25.57;103001.78;5037929;28;20124;-68
2021/03/30 10:41:10;;;;;;;18.10;3.53;;;;;;;20.15;25.90;102989.03;5036043;28;20060;-68
2021/03/30 10:43:36;;;;;;;14.88;3.55;;;;;;;20.27;26.25;102992.91;5037564;28;20356;-68
2021/03/30 10:46:17;;;;;;;14.00;3.85;;;;;;;20.85;26.21;102984.75;5037952;28;20028;-68
2021/03/30 10:49:04;;;;;;;8.13;4.00;;;;;;;20.16;26.33;102987.22;5039304;28;20043;-68
2021/03/30 10:51:32;;;;;;;10.75;4.68;;;;;;;20.18;26.30;102982.72;5038781;28;20040;-67
2021/03/30 10:54:03;;;;;;;5.60;3.15;;;;;;;20.78;25.08;102987.78;5037326;28;20032;-69
2021/03/30 10:56:30;;;;;;;7.78;3.13;;;;;;;20.76;25.68;102985.19;5021745;28;20029;-68
2021/03/30 10:58:55;;;;;;;11.00;4.68;;;;;;;20.40;25.03;102982.56;5038476;28;20047;-69
2021/03/30 11:01:21;;;;;;;11.10;2.90;;;;;;;20.03;25.31;102984.28;5034820;28;20017;-68
2021/03/30 11:03:47;;;;;;;12.45;3.72;;;;;;;20.24;25.59;102979.75;5042561;28;20418;-69
2021/03/30 11:06:13;;;;;;;8.60;3.17;;;;;;;19.74;26.47;102989.16;5043508;28;20414;-68
2021/03/30 11:08:38;;;;;;;7.80;3.08;;;;;;;21.01;24.39;102979.50;5053824;28;20055;-69
2021/03/30 11:11:04;;;;;;;10.50;3.60;;;;;;;21.00;23.73;102976.91;5041167;28;20288;-68
2021/03/30 11:13:29;;;;;;;8.35;3.75;;;;;;;21.27;23.83;102970.19;5038142;28;20040;-69
2021/03/30 11:15:55;;;;;;;9.13;2.10;;;;;;;20.87;22.30;102968.72;5040229;28;20029;-68
2021/03/30 11:18:20;;;;;;;3.80;1.58;;;;;;;19.80;23.40;102961.50;5035787;28;20039;-69
2021/03/30 11:20:46;;;;;;;5.13;2.30;;;;;;;18.77;25.47;102964.19;5039465;28;20041;-68
2021/03/30 11:23:11;;;;;;;7.28;2.45;;;;;;;20.08;24.17;102961.91;5040386;28;20123;-70
2021/03/30 11:25:38;;;;;;;6.40;3.28;;;;;;;21.66;23.69;102960.16;5037690;28;20613;-69
2021/03/30 11:28:08;;;;;;;9.25;3.85;;;;;;;21.05;24.12;102958.94;5041254;28;20504;-69
2021/03/30 11:30:39;;;;;;;5.97;3.38;;;;;;;20.49;24.70;102955.56;5038304;28;20037;-69
2021/03/30 11:35:45;;;;;;;6.57;3.67;;;;;;;20.11;24.69;102955.59;5037704;28;20547;-69
2021/03/30 11:38:12;;;;;;;6.63;2.97;;;;;;;20.02;23.97;102948.94;5040142;28;20341;-69
2021/03/30 11:40:38;;;;;;;7.28;2.90;;;;;;;20.58;23.67;102948.91;5034032;28;20033;-71
2021/03/30 11:43:04;;;;;;;6.78;2.55;;;;;;;20.61;23.35;102948.75;5037609;28;20025;-69
2021/03/30 11:45:30;;;;;;;7.47;2.72;;;;;;;19.87;23.37;102954.97;5035778;28;20426;-70
2021/03/30 11:47:56;;;;;;;6.88;2.30;;;;;;;19.37;24.05;102958.09;5039890;28;20174;-69